Kansas City, Missouri
Traffic Map
Current Weather Conditions
Kansas City, Missouri
Clear
Clear
28°
Feels Like: 31°
Wind Chill: 28° Ceiling: Unl
Heat Index: 31° Visibility: 10mi
Dew Point: 21° Wind: 6mph
Humidity: 65% Direction: 210° (SSW)
Pressure: 29.86in Gusts: 0mph
Raw Report DataKMKC 030354Z 21005KT 10SM CLR 28/21 A2986 RMK AO2 SLP100 T02830211
Traffic Incident Summary
Active as of:
Severity:
Category:
InformationThere was an issue retrieving the traffic information for this location. Please try a different location or try again shortly.
Advertisements
Track Severe Weather on mobile